Time;durP1;ratioP1;P1;durP2;ratioP2;P2;SDS_P1;SDS_P2;PMS_P1;PMS_P2;Temp;Humidity;BMP_temperature;BMP_pressure;BME280_temperature;BME280_humidity;BME280_pressure;Samples;Min_cycle;Max_cycle;Signal;HPM_P1;HPM_P2
2021/11/25 00:02:22;;;;;;;21.17;10.73;;;3.50;99.90;;;;;;5053523;28;20520;-69
2021/11/25 00:04:49;;;;;;;21.23;10.87;;;3.50;99.90;;;;;;5053145;28;20053;-70
2021/11/25 00:07:16;;;;;;;21.80;10.93;;;3.50;99.90;;;;;;5054063;28;20049;-70
2021/11/25 00:09:44;;;;;;;21.73;11.07;;;3.50;99.90;;;;;;5054890;28;20053;-69
2021/11/25 00:12:11;;;;;;;19.20;10.40;;;3.40;99.90;;;;;;5054866;28;20175;-68
2021/11/25 00:14:39;;;;;;;21.80;11.13;;;3.50;99.90;;;;;;5054937;28;20114;-68
2021/11/25 00:17:06;;;;;;;19.27;10.07;;;3.50;99.90;;;;;;5054284;28;20067;-72
2021/11/25 00:19:33;;;;;;;21.33;10.80;;;3.60;99.90;;;;;;5054491;28;20060;-68
2021/11/25 00:22:00;;;;;;;20.80;11.00;;;3.60;99.90;;;;;;5054814;28;20053;-68
2021/11/25 00:24:27;;;;;;;20.00;10.37;;;3.50;99.90;;;;;;5054455;28;20084;-68
2021/11/25 00:26:56;;;;;;;20.17;10.70;;;3.50;99.90;;;;;;5054164;28;20163;-68
2021/11/25 00:29:23;;;;;;;20.20;9.70;;;3.50;99.90;;;;;;5054249;28;20048;-68
2021/11/25 00:31:50;;;;;;;19.03;9.97;;;3.50;99.90;;;;;;5053845;28;20057;-70
2021/11/25 00:34:17;;;;;;;21.20;10.90;;;3.40;99.90;;;;;;5052200;28;20136;-70
2021/11/25 00:36:45;;;;;;;20.90;9.93;;;3.40;99.90;;;;;;5053456;28;20055;-67
2021/11/25 00:39:12;;;;;;;23.53;11.00;;;3.50;99.90;;;;;;5054391;28;20110;-68
2021/11/25 00:41:42;;;;;;;22.87;10.63;;;3.50;99.90;;;;;;5054069;28;20059;-68
2021/11/25 00:44:10;;;;;;;22.60;11.63;;;3.40;99.90;;;;;;5053887;28;20053;-68
2021/11/25 00:46:37;;;;;;;22.07;10.83;;;3.40;99.90;;;;;;5053109;28;20045;-68
2021/11/25 00:49:04;;;;;;;22.27;10.47;;;3.40;99.90;;;;;;5054344;28;20052;-68
2021/11/25 00:51:32;;;;;;;20.47;11.00;;;3.40;99.90;;;;;;5053237;28;20052;-69
2021/11/25 00:53:59;;;;;;;23.10;10.87;;;3.40;99.90;;;;;;5053803;28;20509;-69
2021/11/25 00:56:26;;;;;;;25.37;11.87;;;3.40;99.90;;;;;;5053194;28;20467;-69
2021/11/25 00:58:53;;;;;;;22.77;10.93;;;3.40;99.90;;;;;;5052750;28;20052;-69
2021/11/25 01:01:22;;;;;;;22.30;11.23;;;3.50;99.90;;;;;;5053017;28;20052;-69
2021/11/25 01:03:49;;;;;;;22.80;10.93;;;3.30;99.90;;;;;;5053152;28;20285;-71
2021/11/25 01:06:16;;;;;;;21.37;10.63;;;3.40;99.90;;;;;;5051612;28;20052;-69
2021/11/25 01:08:43;;;;;;;22.30;10.83;;;3.40;99.90;;;;;;5053179;28;20095;-69
2021/11/25 01:11:11;;;;;;;23.50;11.93;;;3.30;99.90;;;;;;5053250;28;20501;-69
2021/11/25 01:13:39;;;;;;;25.33;10.47;;;3.40;99.90;;;;;;5053695;28;20053;-69
2021/11/25 01:16:06;;;;;;;22.53;11.17;;;3.40;99.90;;;;;;5052166;28;20389;-69
2021/11/25 01:18:34;;;;;;;23.37;11.00;;;3.30;99.90;;;;;;5052663;28;20056;-69
2021/11/25 01:21:02;;;;;;;22.47;10.00;;;3.30;99.90;;;;;;5053763;28;20052;-69
2021/11/25 01:23:30;;;;;;;21.00;10.70;;;3.30;99.90;;;;;;5052939;28;20041;-69
2021/11/25 01:25:58;;;;;;;21.37;11.00;;;3.30;99.90;;;;;;5053001;28;20060;-69
2021/11/25 01:28:27;;;;;;;24.33;11.20;;;3.30;99.90;;;;;;5052503;28;20049;-69
2021/11/25 01:30:57;;;;;;;25.93;11.90;;;3.20;99.90;;;;;;5050690;28;20057;-71
2021/11/25 01:33:25;;;;;;;22.07;10.60;;;3.30;99.90;;;;;;5052396;28;20053;-69
2021/11/25 01:35:54;;;;;;;24.73;12.33;;;3.30;99.90;;;;;;5052037;28;20052;-69
2021/11/25 01:38:22;;;;;;;23.83;11.53;;;3.30;99.90;;;;;;5054138;28;20045;-69
2021/11/25 01:40:50;;;;;;;23.30;11.10;;;3.30;99.90;;;;;;5053059;28;20045;-69
2021/11/25 01:43:38;;;;;;;25.43;12.17;;;3.30;99.90;;;;;;5052799;28;20049;-67
2021/11/25 01:46:12;;;;;;;23.80;12.53;;;3.30;99.90;;;;;;5051846;28;20048;-68
2021/11/25 01:48:40;;;;;;;42.43;12.30;;;3.30;99.90;;;;;;5052832;28;20055;-69
2021/11/25 01:51:08;;;;;;;28.90;13.30;;;3.30;99.90;;;;;;5052865;28;20437;-68
2021/11/25 01:53:36;;;;;;;24.23;12.83;;;3.30;99.90;;;;;;5053124;28;20072;-68
2021/11/25 01:56:06;;;;;;;31.77;13.37;;;3.30;99.90;;;;;;5051493;28;20049;-68
2021/11/25 01:58:33;;;;;;;25.70;13.33;;;3.40;99.90;;;;;;5053074;28;20057;-71
2021/11/25 02:01:02;;;;;;;26.10;12.23;;;3.30;99.90;;;;;;5052423;28;20053;-68
2021/11/25 02:03:29;;;;;;;24.70;12.43;;;3.30;99.90;;;;;;5052198;28;20075;-69
2021/11/25 02:05:57;;;;;;;26.83;13.00;;;3.30;99.90;;;;;;5050759;28;20095;-69
2021/11/25 02:08:26;;;;;;;27.40;14.10;;;3.30;99.90;;;;;;5052243;28;20469;-69
2021/11/25 02:10:55;;;;;;;28.33;13.30;;;3.30;99.90;;;;;;5051768;28;20056;-69
2021/11/25 02:13:23;;;;;;;27.97;13.13;;;3.30;99.90;;;;;;5051951;28;20057;-72
2021/11/25 02:15:51;;;;;;;26.10;12.97;;;3.30;99.90;;;;;;5051543;28;20328;-69
2021/11/25 02:18:21;;;;;;;27.53;14.37;;;3.30;99.90;;;;;;5052957;28;20053;-69
2021/11/25 02:20:52;;;;;;;27.70;14.03;;;3.30;99.90;;;;;;5051908;28;20096;-71
2021/11/25 02:23:20;;;;;;;31.40;14.17;;;3.20;99.90;;;;;;5051988;28;20048;-69
2021/11/25 02:25:48;;;;;;;27.60;13.93;;;3.20;99.90;;;;;;5051444;28;20048;-69
2021/11/25 02:28:18;;;;;;;24.77;13.63;;;3.20;99.90;;;;;;5052001;28;20116;-69
2021/11/25 02:30:46;;;;;;;28.00;14.27;;;3.20;99.90;;;;;;5051753;28;20077;-69
2021/11/25 02:33:13;;;;;;;29.70;13.57;;;3.20;99.90;;;;;;5051230;28;20056;-69
2021/11/25 02:35:41;;;;;;;28.97;14.50;;;3.10;99.90;;;;;;5048110;28;20049;-68
2021/11/25 02:38:11;;;;;;;28.37;13.93;;;3.10;99.90;;;;;;5050825;28;20106;-69
2021/11/25 02:40:41;;;;;;;27.07;14.40;;;3.10;99.90;;;;;;5052052;28;20106;-69
2021/11/25 02:43:10;;;;;;;32.10;14.90;;;3.20;99.90;;;;;;5051737;28;20099;-69
2021/11/25 02:45:47;;;;;;;32.87;15.00;;;3.20;99.90;;;;;;5051175;28;20048;-68
2021/11/25 02:48:14;;;;;;;29.10;14.50;;;3.10;99.90;;;;;;5051369;28;20099;-70
2021/11/25 02:50:41;;;;;;;26.73;13.97;;;3.10;99.90;;;;;;5050728;28;20430;-70
2021/11/25 02:53:10;;;;;;;27.70;14.50;;;3.00;99.90;;;;;;5048796;28;20056;-71
2021/11/25 02:55:38;;;;;;;29.83;15.73;;;3.00;99.90;;;;;;5048144;28;20057;-70
2021/11/25 02:58:05;;;;;;;31.57;15.33;;;2.90;99.90;;;;;;5048382;28;20075;-70
2021/11/25 03:00:36;;;;;;;28.07;13.97;;;2.90;99.90;;;;;;5048351;28;20132;-70
2021/11/25 03:03:06;;;;;;;28.90;13.73;;;2.90;99.90;;;;;;5049460;22;20091;-66
2021/11/25 03:05:34;;;;;;;29.57;14.37;;;2.90;99.90;;;;;;5048714;28;20053;-67
2021/11/25 03:08:02;;;;;;;27.77;14.00;;;2.80;99.90;;;;;;5049726;28;20199;-66
2021/11/25 03:10:35;;;;;;;31.37;15.63;;;2.80;99.90;;;;;;5049463;28;20049;-66
2021/11/25 03:13:03;;;;;;;29.57;14.30;;;2.80;99.90;;;;;;5049034;28;20474;-66
2021/11/25 03:15:31;;;;;;;32.63;15.13;;;2.80;99.90;;;;;;5048573;28;20049;-66
2021/11/25 03:17:58;;;;;;;33.23;14.87;;;2.80;99.90;;;;;;5048751;28;20057;-66
2021/11/25 03:20:26;;;;;;;28.67;13.90;;;2.80;99.90;;;;;;5049084;28;20102;-66
2021/11/25 03:22:53;;;;;;;30.40;14.67;;;2.70;99.90;;;;;;5052676;28;20524;-66
2021/11/25 03:25:20;;;;;;;26.60;13.77;;;2.70;99.90;;;;;;5052315;28;20045;-66
2021/11/25 03:27:49;;;;;;;31.13;15.53;;;2.70;99.90;;;;;;5052713;28;20045;-66
2021/11/25 03:30:16;;;;;;;29.60;14.67;;;2.70;99.90;;;;;;5053106;28;20053;-68
2021/11/25 03:32:43;;;;;;;34.30;15.90;;;2.70;99.90;;;;;;5052768;28;20053;-66
2021/11/25 03:35:11;;;;;;;34.17;15.53;;;2.70;99.90;;;;;;5052531;28;20060;-66
2021/11/25 03:37:38;;;;;;;34.33;16.37;;;2.60;99.90;;;;;;5052655;28;20376;-66
2021/11/25 03:40:08;;;;;;;32.07;15.77;;;2.70;99.90;;;;;;5052842;28;20497;-66
2021/11/25 03:42:36;;;;;;;33.23;15.67;;;2.60;99.90;;;;;;5067734;28;20056;-67
2021/11/25 03:45:05;;;;;;;32.27;15.50;;;2.60;99.90;;;;;;5071631;28;20049;-67
2021/11/25 03:47:32;;;;;;;33.13;15.80;;;2.70;99.90;;;;;;5053149;28;20049;-66
2021/11/25 03:49:59;;;;;;;32.30;15.90;;;2.70;99.90;;;;;;5053279;28;20111;-66
2021/11/25 03:52:26;;;;;;;35.17;16.53;;;2.70;99.90;;;;;;5052621;28;20045;-67
2021/11/25 03:54:55;;;;;;;32.30;15.37;;;2.80;99.90;;;;;;5052871;28;20049;-66
2021/11/25 03:57:22;;;;;;;31.40;14.93;;;2.70;99.90;;;;;;5052459;28;20471;-67
2021/11/25 03:59:49;;;;;;;33.00;15.33;;;2.70;99.90;;;;;;5052103;28;20449;-66
2021/11/25 04:02:19;;;;;;;30.67;15.20;;;2.60;99.90;;;;;;5061003;28;20561;-66
2021/11/25 04:04:46;;;;;;;33.23;16.27;;;2.70;99.90;;;;;;5071801;28;20052;-67
2021/11/25 04:07:13;;;;;;;34.13;16.27;;;2.70;99.90;;;;;;5072090;28;20056;-66
2021/11/25 04:09:40;;;;;;;32.00;16.03;;;2.80;99.90;;;;;;5072637;28;20075;-66
2021/11/25 04:12:08;;;;;;;30.97;15.37;;;2.60;99.90;;;;;;5071623;28;20044;-66
2021/11/25 04:14:35;;;;;;;32.73;15.83;;;2.60;99.90;;;;;;5071948;28;20484;-67
2021/11/25 04:17:03;;;;;;;34.10;16.27;;;2.60;99.90;;;;;;5071366;28;20467;-66
2021/11/25 04:19:31;;;;;;;36.20;17.33;;;2.60;99.90;;;;;;5072090;28;20060;-67
2021/11/25 04:21:58;;;;;;;33.23;15.77;;;2.50;99.90;;;;;;5071644;28;20103;-66
2021/11/25 04:24:25;;;;;;;34.47;17.03;;;2.60;99.90;;;;;;5071898;28;20102;-66
2021/11/25 04:26:53;;;;;;;35.73;17.20;;;2.60;99.90;;;;;;5071145;28;20064;-66
2021/11/25 04:29:20;;;;;;;31.97;16.33;;;2.50;99.90;;;;;;5077509;28;20052;-67
2021/11/25 04:37:17;;;;;;;35.13;17.67;;;2.50;99.90;;;;;;5071366;28;20052;-67
2021/11/25 04:39:44;;;;;;;37.57;18.33;;;2.50;99.90;;;;;;5071797;28;20503;-66
2021/11/25 04:42:11;;;;;;;36.93;18.27;;;2.60;99.90;;;;;;5071031;28;20581;-67
2021/11/25 04:44:38;;;;;;;38.93;18.07;;;2.60;99.90;;;;;;5071209;28;20049;-66
2021/11/25 04:47:05;;;;;;;33.50;16.37;;;2.50;99.90;;;;;;5071027;28;20056;-66
2021/11/25 04:49:34;;;;;;;35.20;16.17;;;2.60;99.90;;;;;;5071100;28;20170;-67
2021/11/25 04:52:01;;;;;;;33.33;16.83;;;2.50;99.90;;;;;;5071450;28;20114;-66
2021/11/25 04:54:28;;;;;;;36.60;18.10;;;2.50;99.90;;;;;;5071117;28;20573;-67
2021/11/25 04:56:55;;;;;;;36.53;17.43;;;2.50;99.90;;;;;;5070895;28;20060;-67
2021/11/25 04:59:22;;;;;;;35.53;18.03;;;2.60;99.90;;;;;;5071378;28;20044;-66
2021/11/25 05:01:49;;;;;;;35.67;17.80;;;2.60;99.90;;;;;;5071249;28;20103;-66
2021/11/25 05:04:16;;;;;;;36.77;18.30;;;2.60;99.90;;;;;;5070752;28;20106;-67
2021/11/25 05:06:45;;;;;;;38.70;19.20;;;2.70;99.90;;;;;;5070172;28;20110;-66
2021/11/25 05:09:13;;;;;;;38.13;19.13;;;2.70;99.90;;;;;;5071175;28;20049;-67
2021/11/25 05:11:40;;;;;;;36.93;17.73;;;2.70;99.90;;;;;;5070939;28;20110;-67
2021/11/25 05:14:07;;;;;;;35.83;17.97;;;2.70;99.90;;;;;;5070922;28;20488;-66
2021/11/25 05:16:34;;;;;;;36.97;19.07;;;2.70;99.90;;;;;;5069970;28;20569;-67
2021/11/25 05:19:01;;;;;;;39.73;19.30;;;2.60;99.90;;;;;;5070474;28;20056;-66
2021/11/25 05:21:28;;;;;;;33.70;16.93;;;2.60;99.90;;;;;;5070595;28;20508;-67
2021/11/25 05:23:56;;;;;;;39.87;19.33;;;2.60;99.90;;;;;;5070227;28;20059;-66
2021/11/25 05:26:24;;;;;;;36.97;18.37;;;2.50;99.90;;;;;;5069756;28;20049;-67
2021/11/25 05:28:51;;;;;;;37.73;18.23;;;2.50;99.90;;;;;;5070829;28;20397;-66
2021/11/25 05:31:18;;;;;;;38.30;18.67;;;2.60;99.90;;;;;;5070229;28;20057;-67
2021/11/25 05:33:45;;;;;;;40.33;19.00;;;2.60;99.90;;;;;;5072962;28;20052;-67
2021/11/25 05:36:12;;;;;;;38.10;18.73;;;2.60;99.90;;;;;;5075484;28;20500;-67
2021/11/25 05:38:39;;;;;;;36.57;19.23;;;2.60;99.90;;;;;;5072858;28;20048;-66
2021/11/25 05:41:07;;;;;;;42.30;18.97;;;2.50;99.90;;;;;;5070549;28;20102;-67
2021/11/25 05:43:34;;;;;;;36.43;18.73;;;2.50;99.90;;;;;;5069691;28;20060;-67
2021/11/25 05:46:02;;;;;;;40.57;20.33;;;2.50;99.90;;;;;;5075470;28;20071;-67
2021/11/25 05:48:29;;;;;;;39.07;18.87;;;2.50;99.90;;;;;;5080708;28;20062;-67
2021/11/25 05:50:56;;;;;;;36.33;20.03;;;2.60;99.90;;;;;;5073959;28;20110;-66
2021/11/25 05:53:23;;;;;;;37.17;18.87;;;2.60;99.90;;;;;;5072124;28;20056;-67
2021/11/25 05:55:50;;;;;;;35.50;19.13;;;2.60;99.90;;;;;;5070277;28;20052;-66
2021/11/25 05:58:18;;;;;;;42.60;21.43;;;2.50;99.90;;;;;;5069617;28;20044;-66
2021/11/25 06:00:45;;;;;;;40.90;20.77;;;2.60;99.90;;;;;;5070008;28;20632;-66
2021/11/25 06:03:12;;;;;;;36.63;19.10;;;2.60;99.90;;;;;;5069517;28;20048;-67
2021/11/25 06:05:39;;;;;;;37.07;18.37;;;2.50;99.90;;;;;;5069182;28;20094;-66
2021/11/25 06:08:06;;;;;;;36.67;18.70;;;2.40;99.90;;;;;;5069676;28;20045;-66
2021/11/25 06:10:34;;;;;;;42.23;19.43;;;2.40;99.90;;;;;;5070726;28;20052;-66
2021/11/25 06:13:02;;;;;;;38.20;19.60;;;2.40;99.90;;;;;;5069317;28;20048;-66
2021/11/25 06:15:30;;;;;;;34.97;18.30;;;2.30;99.90;;;;;;5069371;28;20045;-67
2021/11/25 06:17:57;;;;;;;39.83;20.53;;;2.40;99.90;;;;;;5069726;28;20052;-66
2021/11/25 06:20:25;;;;;;;36.97;18.77;;;2.40;99.90;;;;;;5069510;28;20045;-66
2021/11/25 06:22:54;;;;;;;37.50;19.83;;;2.50;99.90;;;;;;5069881;28;20052;-67
2021/11/25 06:25:22;;;;;;;35.67;19.53;;;2.60;99.90;;;;;;5068340;28;20109;-67
2021/11/25 06:27:49;;;;;;;45.30;22.37;;;2.60;99.90;;;;;;5070242;28;20549;-66
2021/11/25 06:30:17;;;;;;;41.27;19.27;;;2.50;99.90;;;;;;5070732;28;20048;-66
2021/11/25 06:32:48;;;;;;;41.10;20.43;;;2.40;99.90;;;;;;5070774;28;20493;-66
2021/11/25 06:35:17;;;;;;;37.80;19.90;;;2.30;99.90;;;;;;5070504;28;20105;-66
2021/11/25 06:37:46;;;;;;;36.73;18.10;;;2.30;99.90;;;;;;5070296;28;20133;-66
2021/11/25 06:40:15;;;;;;;41.33;20.20;;;2.30;99.90;;;;;;5070413;28;20075;-67
2021/11/25 06:42:42;;;;;;;41.47;19.07;;;2.30;99.90;;;;;;5070312;28;20108;-66
2021/11/25 06:45:10;;;;;;;41.33;21.07;;;2.30;99.90;;;;;;5069640;28;20048;-67
2021/11/25 06:47:37;;;;;;;43.03;20.20;;;2.30;99.90;;;;;;5070432;28;20060;-67
2021/11/25 06:50:08;;;;;;;45.57;22.20;;;2.40;99.90;;;;;;5070281;28;20098;-66
2021/11/25 06:52:36;;;;;;;43.13;20.33;;;2.40;99.90;;;;;;5081761;28;20040;-67
2021/11/25 06:55:03;;;;;;;40.57;19.43;;;2.40;99.90;;;;;;5089224;28;20052;-69
2021/11/25 06:57:30;;;;;;;39.53;19.83;;;2.30;99.90;;;;;;5077025;28;20048;-67
2021/11/25 06:59:57;;;;;;;41.00;20.23;;;2.40;99.90;;;;;;5075399;28;20118;-68
2021/11/25 07:02:25;;;;;;;44.60;21.30;;;2.40;99.90;;;;;;5074884;28;20503;-67
2021/11/25 07:04:52;;;;;;;44.53;20.13;;;2.40;99.90;;;;;;5074076;28;20100;-67
2021/11/25 07:07:20;;;;;;;42.50;19.47;;;2.40;99.90;;;;;;5073912;28;20126;-66
2021/11/25 07:09:47;;;;;;;46.83;21.87;;;2.40;99.90;;;;;;5073472;28;20048;-67
2021/11/25 07:12:14;;;;;;;42.27;20.10;;;2.40;99.90;;;;;;5073138;28;20052;-66
2021/11/25 07:14:41;;;;;;;36.60;18.43;;;2.40;99.90;;;;;;5072460;28;20067;-67
2021/11/25 07:17:08;;;;;;;41.80;20.03;;;2.40;99.90;;;;;;5073559;28;20052;-67
2021/11/25 07:19:35;;;;;;;47.93;21.17;;;2.40;99.90;;;;;;5072845;28;20094;-67
2021/11/25 07:22:03;;;;;;;43.90;20.57;;;2.40;99.90;;;;;;5073167;28;20106;-66
2021/11/25 07:24:31;;;;;;;43.37;20.93;;;2.40;99.90;;;;;;5072523;28;20052;-66
2021/11/25 07:26:58;;;;;;;42.67;21.47;;;2.40;99.90;;;;;;5072618;28;20161;-66
2021/11/25 07:29:26;;;;;;;42.07;20.87;;;2.40;99.90;;;;;;5073950;28;20121;-68
2021/11/25 07:31:53;;;;;;;43.43;21.90;;;2.40;99.90;;;;;;5073912;28;20053;-66
2021/11/25 07:34:20;;;;;;;45.77;22.83;;;2.40;99.90;;;;;;5073865;28;20045;-67
2021/11/25 07:36:47;;;;;;;44.47;21.80;;;2.40;99.90;;;;;;5073216;28;20106;-67
2021/11/25 07:39:15;;;;;;;44.57;21.50;;;2.50;99.90;;;;;;5073283;28;20558;-67
2021/11/25 07:41:43;;;;;;;48.10;22.23;;;2.60;99.90;;;;;;5074126;28;20488;-67
2021/11/25 07:44:10;;;;;;;42.10;20.17;;;2.60;99.90;;;;;;5074923;28;20048;-66
2021/11/25 07:46:37;;;;;;;46.33;22.23;;;2.60;99.90;;;;;;5073510;28;20044;-66
2021/11/25 07:49:05;;;;;;;45.37;20.97;;;2.60;99.90;;;;;;5073377;28;20255;-67
2021/11/25 07:51:33;;;;;;;49.77;21.57;;;2.40;99.90;;;;;;5073386;28;20052;-67
2021/11/25 07:54:02;;;;;;;48.33;21.63;;;2.40;99.90;;;;;;5073229;28;20056;-67
2021/11/25 07:56:29;;;;;;;40.80;20.23;;;2.30;99.90;;;;;;5072868;28;20124;-67
2021/11/25 07:58:57;;;;;;;43.33;21.07;;;2.30;99.90;;;;;;5072609;28;20053;-67
2021/11/25 08:01:24;;;;;;;47.57;21.67;;;2.30;99.90;;;;;;5071755;28;20064;-66
2021/11/25 08:03:52;;;;;;;48.17;22.90;;;2.40;99.90;;;;;;5071901;28;20063;-67
2021/11/25 08:06:19;;;;;;;45.53;22.10;;;2.40;99.90;;;;;;5070728;28;20060;-66
2021/11/25 08:08:46;;;;;;;49.47;22.80;;;2.60;99.90;;;;;;5071428;28;20113;-66
2021/11/25 08:11:13;;;;;;;44.43;22.37;;;2.50;99.90;;;;;;5071715;28;20098;-66
2021/11/25 08:13:40;;;;;;;44.80;21.53;;;2.50;99.90;;;;;;5071922;28;20052;-67
2021/11/25 08:16:13;;;;;;;45.70;22.70;;;2.50;99.90;;;;;;5072151;28;20049;-67
2021/11/25 08:18:40;;;;;;;48.87;22.07;;;2.40;99.90;;;;;;5072995;28;20049;-67
2021/11/25 08:21:07;;;;;;;53.10;23.20;;;2.50;99.90;;;;;;5072405;28;20045;-67
2021/11/25 08:23:34;;;;;;;42.30;20.80;;;2.40;99.90;;;;;;5072798;28;20052;-67
2021/11/25 08:26:01;;;;;;;46.17;22.97;;;2.50;99.90;;;;;;5071959;28;20109;-66
2021/11/25 08:28:29;;;;;;;45.30;21.07;;;2.60;99.90;;;;;;5072036;28;20497;-66
2021/11/25 08:30:56;;;;;;;49.13;22.40;;;2.70;99.90;;;;;;5071499;28;20057;-67
2021/11/25 08:33:25;;;;;;;48.83;22.93;;;2.70;99.90;;;;;;5071182;28;20080;-67
2021/11/25 08:35:53;;;;;;;49.73;23.10;;;2.80;99.90;;;;;;5069476;28;20082;-67
2021/11/25 08:38:20;;;;;;;50.23;21.97;;;2.60;99.90;;;;;;5071613;28;20487;-67
2021/11/25 08:40:47;;;;;;;45.57;21.40;;;2.50;99.90;;;;;;5073401;28;20557;-67
2021/11/25 08:43:17;;;;;;;48.77;22.73;;;2.50;99.90;;;;;;5072965;28;20094;-67
2021/11/25 08:45:45;;;;;;;43.77;21.73;;;2.60;99.90;;;;;;5069679;28;20052;-67
2021/11/25 08:48:12;;;;;;;47.03;22.33;;;2.60;99.90;;;;;;5070371;28;20045;-67
2021/11/25 08:50:41;;;;;;;46.23;22.13;;;2.60;99.90;;;;;;5070722;28;20053;-67
2021/11/25 08:53:08;;;;;;;48.20;22.57;;;2.60;99.90;;;;;;5071049;28;20087;-67
2021/11/25 08:55:35;;;;;;;45.87;21.83;;;2.60;99.90;;;;;;5070334;28;20049;-66
2021/11/25 08:58:03;;;;;;;48.63;23.03;;;2.50;99.90;;;;;;5070756;28;20139;-66
2021/11/25 09:00:33;;;;;;;47.07;22.47;;;2.60;99.90;;;;;;5070626;28;20044;-66
2021/11/25 09:03:00;;;;;;;49.40;22.50;;;2.50;99.90;;;;;;5064735;22;20464;-70
2021/11/25 09:05:29;;;;;;;50.97;23.10;;;2.60;99.90;;;;;;5052291;28;20163;-71
2021/11/25 09:07:58;;;;;;;49.13;22.80;;;2.60;99.90;;;;;;5052661;28;20508;-72
2021/11/25 09:10:25;;;;;;;53.77;24.53;;;2.60;99.90;;;;;;5052210;28;20089;-72
2021/11/25 09:12:53;;;;;;;47.80;21.47;;;2.60;99.90;;;;;;5051997;28;20563;-70
2021/11/25 09:15:21;;;;;;;47.47;22.23;;;2.60;99.90;;;;;;5051709;28;20045;-71
2021/11/25 09:17:48;;;;;;;50.80;22.67;;;2.40;99.90;;;;;;5052505;28;20049;-69
2021/11/25 09:20:15;;;;;;;50.40;22.80;;;2.50;99.90;;;;;;5050906;28;20056;-69
2021/11/25 09:22:42;;;;;;;47.60;22.37;;;2.70;99.90;;;;;;5051349;28;20048;-70
2021/11/25 09:25:11;;;;;;;49.13;23.40;;;2.90;99.90;;;;;;5051347;28;20092;-70
2021/11/25 09:27:38;;;;;;;46.40;22.63;;;2.80;99.90;;;;;;5052384;28;20071;-72
2021/11/25 09:30:06;;;;;;;48.27;21.63;;;2.80;99.90;;;;;;5050926;28;20523;-73
2021/11/25 09:32:33;;;;;;;48.67;23.17;;;2.70;99.90;;;;;;5050844;28;20044;-69
2021/11/25 09:35:00;;;;;;;47.40;22.03;;;2.80;99.90;;;;;;5051045;28;20447;-72
2021/11/25 09:37:29;;;;;;;45.53;21.93;;;2.70;99.90;;;;;;5052643;28;20045;-72
2021/11/25 09:39:56;;;;;;;46.10;21.67;;;2.70;99.90;;;;;;5053889;28;20049;-72
2021/11/25 09:42:25;;;;;;;44.83;22.17;;;2.70;99.90;;;;;;5051653;28;20049;-71
2021/11/25 09:44:52;;;;;;;48.67;21.93;;;2.80;99.90;;;;;;5051364;28;20056;-70
2021/11/25 09:47:20;;;;;;;49.90;22.07;;;2.90;99.90;;;;;;5051443;28;20148;-67
2021/11/25 09:49:47;;;;;;;44.63;20.67;;;2.90;99.90;;;;;;5050861;28;20056;-70
2021/11/25 09:52:14;;;;;;;47.93;21.87;;;3.00;99.90;;;;;;5050559;28;20057;-69
2021/11/25 09:54:41;;;;;;;44.00;20.93;;;3.00;99.90;;;;;;5051420;28;20045;-68
2021/11/25 09:57:08;;;;;;;42.67;19.33;;;3.00;99.90;;;;;;5052261;28;20056;-68
2021/11/25 09:59:37;;;;;;;38.97;18.47;;;3.00;99.90;;;;;;5052220;28;20094;-69
2021/11/25 10:02:04;;;;;;;36.93;17.93;;;2.90;99.90;;;;;;5051672;28;20057;-69
2021/11/25 10:04:31;;;;;;;44.10;20.33;;;2.90;99.90;;;;;;5052044;28;20535;-68
2021/11/25 10:07:00;;;;;;;40.13;18.37;;;3.00;99.90;;;;;;5050428;28;20048;-70
2021/11/25 10:09:35;;;;;;;39.53;18.87;;;3.10;99.90;;;;;;5052142;28;20056;-68
2021/11/25 10:12:22;;;;;;;43.53;20.23;;;3.30;99.90;;;;;;5051705;28;20075;-69
2021/11/25 10:14:51;;;;;;;40.67;19.83;;;3.30;99.90;;;;;;5051745;28;20061;-67
2021/11/25 10:17:46;;;;;;;42.83;19.67;;;3.30;99.90;;;;;;5051416;28;20092;-68
2021/11/25 10:20:15;;;;;;;42.53;20.57;;;3.30;99.90;;;;;;5052182;28;20057;-68
2021/11/25 10:23:15;;;;;;;41.97;20.13;;;3.10;99.90;;;;;;5052454;28;20057;-68
2021/11/25 10:25:49;;;;;;;45.43;19.80;;;3.00;99.90;;;;;;5050274;28;20501;-70
2021/11/25 10:28:38;;;;;;;45.77;20.20;;;3.10;99.90;;;;;;5051432;28;20092;-67
2021/11/25 10:31:11;;;;;;;43.57;20.53;;;3.10;99.90;;;;;;5052024;28;20052;-68
2021/11/25 10:33:46;;;;;;;43.43;20.57;;;3.10;99.90;;;;;;5051930;28;20056;-68
2021/11/25 10:36:30;;;;;;;43.10;19.73;;;3.20;99.90;;;;;;5051243;28;20392;-68
2021/11/25 10:39:03;;;;;;;44.47;20.07;;;3.30;99.90;;;;;;5052424;28;20045;-67
2021/11/25 10:41:32;;;;;;;49.43;20.43;;;3.30;99.90;;;;;;5051746;28;20088;-68
2021/11/25 10:44:09;;;;;;;47.03;20.13;;;3.20;99.90;;;;;;5051798;28;20521;-69
2021/11/25 10:46:44;;;;;;;41.97;19.37;;;3.20;99.90;;;;;;5050703;28;20056;-68
2021/11/25 10:49:12;;;;;;;47.17;21.40;;;3.10;99.90;;;;;;5051660;28;20052;-72
2021/11/25 10:51:43;;;;;;;45.67;19.93;;;3.10;99.90;;;;;;5051865;28;20045;-70
2021/11/25 10:54:12;;;;;;;46.93;19.17;;;3.30;99.90;;;;;;5051268;28;20052;-68
2021/11/25 10:56:42;;;;;;;42.13;19.40;;;3.40;99.90;;;;;;5051789;28;20064;-68
2021/11/25 10:59:11;;;;;;;45.70;21.20;;;3.50;99.90;;;;;;5050892;28;20057;-68
2021/11/25 11:01:43;;;;;;;41.53;19.20;;;3.40;99.90;;;;;;5051503;28;20049;-70
2021/11/25 11:04:11;;;;;;;42.93;19.00;;;3.50;99.90;;;;;;5051210;28;20061;-70
2021/11/25 11:06:40;;;;;;;40.97;18.23;;;3.40;99.90;;;;;;5051178;28;20500;-70
2021/11/25 11:09:09;;;;;;;39.83;19.00;;;3.30;99.90;;;;;;5051798;28;20366;-70
2021/11/25 11:11:38;;;;;;;42.80;19.00;;;3.20;99.90;;;;;;5051733;28;20055;-70
2021/11/25 11:14:19;;;;;;;45.13;20.50;;;3.40;99.90;;;;;;5052150;28;20057;-72
2021/11/25 11:16:50;;;;;;;41.87;19.30;;;3.40;99.90;;;;;;5050696;28;20057;-72
2021/11/25 11:19:18;;;;;;;43.37;20.87;;;3.40;99.90;;;;;;5051374;28;20045;-70
2021/11/25 11:21:48;;;;;;;48.57;20.40;;;3.40;99.90;;;;;;5051297;28;20566;-68
2021/11/25 11:24:17;;;;;;;47.87;20.13;;;3.40;99.90;;;;;;5051366;28;20088;-68
2021/11/25 11:26:47;;;;;;;40.10;18.60;;;3.40;99.90;;;;;;5050603;28;20052;-68
2021/11/25 11:29:17;;;;;;;42.37;19.90;;;3.30;99.90;;;;;;5051193;28;20052;-69
2021/11/25 11:31:47;;;;;;;45.83;20.83;;;3.30;99.90;;;;;;5050936;28;20420;-68
2021/11/25 11:34:17;;;;;;;42.80;20.60;;;3.40;99.90;;;;;;5051145;28;20464;-68
2021/11/25 11:36:46;;;;;;;43.87;20.43;;;3.30;99.90;;;;;;5050827;28;20068;-71
2021/11/25 11:39:16;;;;;;;45.37;20.63;;;3.40;99.90;;;;;;5051616;28;20466;-67
2021/11/25 11:41:46;;;;;;;42.80;19.70;;;3.30;99.90;;;;;;5045612;28;20049;-68
2021/11/25 11:44:13;;;;;;;41.80;20.13;;;3.20;99.90;;;;;;5049403;28;20045;-69
2021/11/25 11:46:42;;;;;;;43.50;19.27;;;3.30;99.90;;;;;;5053354;28;20057;-68
2021/11/25 11:49:10;;;;;;;44.93;20.10;;;3.20;99.90;;;;;;5054690;28;20064;-68
2021/11/25 11:51:37;;;;;;;40.03;18.23;;;3.20;99.90;;;;;;5051744;28;20060;-68
2021/11/25 11:54:18;;;;;;;40.13;18.13;;;3.30;99.90;;;;;;5040167;28;20053;-68
2021/11/25 11:56:46;;;;;;;43.37;19.13;;;3.30;99.90;;;;;;5033650;28;20056;-68
2021/11/25 11:59:15;;;;;;;42.50;18.93;;;3.10;99.90;;;;;;5033298;28;20049;-71
2021/11/25 12:01:43;;;;;;;44.63;19.07;;;3.00;99.90;;;;;;5039156;28;20127;-71
2021/11/25 12:04:16;;;;;;;46.10;18.63;;;3.00;99.90;;;;;;5048122;28;20045;-69
2021/11/25 12:06:45;;;;;;;44.00;18.97;;;2.90;99.90;;;;;;5051981;28;20092;-69
2021/11/25 12:09:34;;;;;;;37.67;17.33;;;3.10;99.90;;;;;;5053520;28;20095;-69
2021/11/25 12:12:10;;;;;;;42.87;18.80;;;3.20;99.90;;;;;;5053553;28;20508;-67
2021/11/25 12:14:37;;;;;;;31.42;13.32;;;3.20;99.90;;;;;;5053913;28;20049;-70
2021/11/25 12:17:07;;;;;;;34.77;15.87;;;3.20;99.90;;;;;;5053276;28;20053;-68
2021/11/25 12:19:38;;;;;;;35.43;16.83;;;3.30;99.90;;;;;;5053999;28;20102;-69
2021/11/25 12:22:17;;;;;;;32.53;15.23;;;3.30;99.90;;;;;;5053800;28;20056;-70
2021/11/25 12:24:48;;;;;;;34.77;15.90;;;3.40;99.90;;;;;;5052928;28;20575;-67
2021/11/25 12:27:19;;;;;;;32.83;16.37;;;3.40;99.90;;;;;;5053554;28;20057;-67
2021/11/25 12:29:54;;;;;;;41.03;17.43;;;3.30;99.90;;;;;;5053210;28;20103;-73
2021/11/25 12:32:37;;;;;;;37.30;17.43;;;3.10;99.90;;;;;;5052717;28;20057;-71
2021/11/25 12:35:44;;;;;;;36.80;17.03;;;3.10;99.90;;;;;;5053053;28;20064;-72
2021/11/25 12:38:17;;;;;;;39.20;17.33;;;3.00;99.90;;;;;;5052593;28;20095;-70
2021/11/25 12:40:57;;;;;;;39.13;16.77;;;3.00;99.90;;;;;;5051399;28;20091;-69
2021/11/25 12:43:26;;;;;;;40.67;18.43;;;3.00;99.90;;;;;;5052318;28;20049;-69
2021/11/25 12:45:55;;;;;;;38.87;17.37;;;3.10;99.90;;;;;;5051970;28;20060;-69
2021/11/25 12:48:28;;;;;;;37.20;16.63;;;3.10;99.90;;;;;;5053440;28;20496;-70
2021/11/25 12:51:00;;;;;;;41.77;17.57;;;3.20;99.90;;;;;;5053709;28;20056;-68
2021/11/25 12:53:31;;;;;;;39.90;18.57;;;3.20;99.90;;;;;;5053501;28;20049;-69